createdAt,value
2018-03-26T00:00:43.421Z,1.90
2018-03-26T00:03:46.794Z,1.80
2018-03-26T00:06:50.217Z,1.70
2018-03-26T00:09:54.318Z,1.50
2018-03-26T00:12:57.673Z,1.50
2018-03-26T00:16:01.025Z,1.50
2018-03-26T00:19:04.372Z,1.50
2018-03-26T00:22:07.753Z,1.50
2018-03-26T00:25:11.873Z,1.60
2018-03-26T00:28:15.650Z,1.60
2018-03-26T00:31:19.000Z,1.60
2018-03-26T00:34:22.401Z,1.50
2018-03-26T00:37:25.759Z,1.60
2018-03-26T00:40:29.932Z,1.50
2018-03-26T00:43:33.277Z,1.50
2018-03-26T00:46:37.453Z,1.60
2018-03-26T00:49:40.829Z,1.50
2018-03-26T00:52:44.222Z,1.60
2018-03-26T00:55:47.570Z,1.70
2018-03-26T00:58:51.688Z,1.50
2018-03-26T01:01:56.769Z,1.50
2018-03-26T01:05:00.117Z,1.50
2018-03-26T01:08:03.489Z,1.40
2018-03-26T01:11:06.841Z,1.50
2018-03-26T01:14:10.227Z,1.30
2018-03-26T01:17:13.582Z,1.00
2018-03-26T01:20:16.933Z,1.10
2018-03-26T01:23:20.283Z,1.10
2018-03-26T01:26:23.670Z,0.90
2018-03-26T01:29:27.027Z,0.90
2018-03-26T01:32:30.375Z,0.80
2018-03-26T01:35:33.754Z,0.80
2018-03-26T01:38:37.221Z,0.80
2018-03-26T01:41:40.621Z,0.80
2018-03-26T01:44:43.973Z,0.80
2018-03-26T01:47:47.327Z,0.90
2018-03-26T01:50:50.855Z,0.80
2018-03-26T01:53:54.973Z,0.90
2018-03-26T01:56:58.319Z,0.80
2018-03-26T02:00:01.694Z,0.90
2018-03-26T02:03:05.032Z,1.00
2018-03-26T02:06:09.359Z,1.20
2018-03-26T02:09:12.726Z,1.20
2018-03-26T02:12:16.103Z,1.20
2018-03-26T02:15:19.473Z,1.20
2018-03-26T02:18:23.602Z,1.00
2018-03-26T02:21:26.966Z,1.00
2018-03-26T02:24:31.831Z,1.00
2018-03-26T02:27:35.955Z,1.00
2018-03-26T02:30:39.333Z,1.00
2018-03-26T02:33:43.472Z,1.20
2018-03-26T02:36:46.830Z,1.20
2018-03-26T02:39:50.950Z,1.20
2018-03-26T02:42:55.810Z,1.10
2018-03-26T02:45:59.928Z,1.20
2018-03-26T02:49:04.063Z,1.20
2018-03-26T02:52:07.420Z,1.10
2018-03-26T02:55:10.780Z,1.20
2018-03-26T02:58:14.141Z,1.20
2018-03-26T03:01:18.273Z,1.20
2018-03-26T03:04:21.656Z,1.20
2018-03-26T03:07:25.772Z,1.20
2018-03-26T03:10:29.891Z,1.30
2018-03-26T03:13:34.026Z,1.30
2018-03-26T03:16:37.386Z,1.30
2018-03-26T03:19:41.500Z,1.40
2018-03-26T03:22:44.845Z,1.40
2018-03-26T03:25:48.198Z,1.40
2018-03-26T03:28:51.552Z,1.50
2018-03-26T03:31:55.011Z,1.50
2018-03-26T03:34:59.134Z,1.60
2018-03-26T03:38:03.241Z,1.60
2018-03-26T03:41:07.370Z,1.70
2018-03-26T03:44:11.486Z,1.70
2018-03-26T03:47:15.617Z,1.70
2018-03-26T03:50:19.127Z,1.70
2018-03-26T03:53:22.481Z,1.80
2018-03-26T03:56:25.830Z,1.80
2018-03-26T03:59:29.187Z,1.90
2018-03-26T04:02:33.312Z,2.00
2018-03-26T04:05:37.448Z,2.10
2018-03-26T04:08:40.798Z,2.10
2018-03-26T04:11:44.166Z,2.20
2018-03-26T04:14:47.645Z,2.20
2018-03-26T04:17:51.019Z,2.30
2018-03-26T04:20:55.225Z,2.40
2018-03-26T04:23:58.582Z,2.30
2018-03-26T04:27:01.942Z,2.40
2018-03-26T04:30:06.051Z,2.50
2018-03-26T04:33:09.411Z,2.50
2018-03-26T04:36:12.833Z,2.60
2018-03-26T04:39:16.186Z,2.60
2018-03-26T04:42:19.529Z,2.70
2018-03-26T04:45:24.508Z,2.70
2018-03-26T04:48:27.863Z,2.80
2018-03-26T04:51:31.226Z,2.80
2018-03-26T04:54:34.575Z,2.90
2018-03-26T04:57:37.917Z,2.90
2018-03-26T05:00:41.298Z,2.90
2018-03-26T05:03:44.652Z,3.00
2018-03-26T05:06:48.008Z,3.00
2018-03-26T05:09:51.359Z,3.00
2018-03-26T05:12:55.518Z,3.10
2018-03-26T05:15:59.035Z,3.10
2018-03-26T05:19:02.376Z,3.10
2018-03-26T05:22:05.714Z,3.00
2018-03-26T05:25:09.071Z,2.90
2018-03-26T05:28:12.421Z,2.70
2018-03-26T05:31:15.764Z,2.70
2018-03-26T05:34:19.893Z,2.70
2018-03-26T05:37:23.255Z,2.60
2018-03-26T05:40:26.608Z,2.70
2018-03-26T05:43:29.981Z,2.70
2018-03-26T05:46:34.114Z,2.70
2018-03-26T05:49:37.518Z,2.70
2018-03-26T05:52:41.634Z,2.60
2018-03-26T05:55:45.872Z,2.60
2018-03-26T05:58:49.234Z,2.60
2018-03-26T06:01:53.431Z,2.60
2018-03-26T06:04:57.004Z,2.60
2018-03-26T06:08:00.426Z,2.70
2018-03-26T06:11:03.798Z,2.70
2018-03-26T06:14:07.155Z,2.80
2018-03-26T06:17:14.658Z,2.90
2018-03-26T06:20:18.020Z,2.80
2018-03-26T06:23:21.471Z,2.80
2018-03-26T06:26:25.623Z,2.90
2018-03-26T06:29:28.973Z,2.90
2018-03-26T06:32:32.303Z,2.90
2018-03-26T06:35:35.706Z,3.00
2018-03-26T06:38:39.969Z,3.00
2018-03-26T06:41:43.547Z,3.10
2018-03-26T06:44:46.905Z,3.10
2018-03-26T06:47:51.051Z,3.00
2018-03-26T06:50:54.400Z,3.00
2018-03-26T06:53:57.796Z,3.00
2018-03-26T06:57:01.149Z,3.10
2018-03-26T07:00:04.482Z,3.30
2018-03-26T07:03:07.858Z,3.50
2018-03-26T07:06:11.207Z,3.70
2018-03-26T07:09:14.564Z,3.70
2018-03-26T07:12:17.963Z,3.90
2018-03-26T07:15:21.408Z,4.10
2018-03-26T07:18:24.747Z,4.30
2018-03-26T07:21:28.102Z,4.50
2018-03-26T07:24:32.231Z,4.50
2018-03-26T07:27:36.367Z,4.40
2018-03-26T07:30:39.722Z,4.30
2018-03-26T07:33:43.100Z,4.40
2018-03-26T07:36:46.499Z,4.50
2018-03-26T07:39:49.861Z,4.60
2018-03-26T07:42:53.296Z,4.50
2018-03-26T07:45:56.676Z,4.60
2018-03-26T07:49:00.051Z,4.60
2018-03-26T07:52:04.167Z,4.70
2018-03-26T07:55:08.295Z,4.80
2018-03-26T07:58:11.640Z,4.70
2018-03-26T08:01:14.987Z,5.20
2018-03-26T08:04:18.306Z,5.40
2018-03-26T08:07:21.653Z,5.60
2018-03-26T08:10:24.997Z,5.70
2018-03-26T08:13:28.345Z,5.70
2018-03-26T08:16:31.701Z,5.70
2018-03-26T08:19:35.127Z,5.70
2018-03-26T08:22:38.477Z,5.70
2018-03-26T08:25:41.860Z,5.90
2018-03-26T08:28:45.971Z,6.20
2018-03-26T08:31:49.327Z,6.10
2018-03-26T08:34:52.677Z,6.20
2018-03-26T08:37:56.873Z,6.50
2018-03-26T08:41:00.998Z,6.40
2018-03-26T08:44:04.345Z,6.40
2018-03-26T08:47:07.759Z,6.50
2018-03-26T08:50:11.239Z,6.40
2018-03-26T08:53:14.490Z,6.40
2018-03-26T08:56:17.865Z,6.30
2018-03-26T08:59:21.234Z,6.30
2018-03-26T09:02:24.606Z,6.20
2018-03-26T09:05:28.851Z,5.90
2018-03-26T09:08:32.192Z,5.80
2018-03-26T09:11:35.649Z,5.90
2018-03-26T09:14:39.013Z,5.90
2018-03-26T09:17:42.417Z,5.80
2018-03-26T09:20:46.564Z,6.00
2018-03-26T09:23:49.974Z,6.00
2018-03-26T09:26:53.539Z,6.10
2018-03-26T09:29:56.882Z,6.00
2018-03-26T09:33:00.278Z,6.00
2018-03-26T09:36:03.654Z,5.90
2018-03-26T09:39:06.994Z,5.90
2018-03-26T09:42:10.342Z,5.90
2018-03-26T09:45:14.471Z,5.90
2018-03-26T09:48:17.852Z,5.90
2018-03-26T09:51:22.129Z,6.20
2018-03-26T09:54:25.477Z,6.20
2018-03-26T09:57:29.623Z,6.90
2018-03-26T10:00:38.709Z,6.90
2018-03-26T10:03:42.072Z,6.80
2018-03-26T10:06:45.449Z,6.60
2018-03-26T10:09:48.802Z,6.80
2018-03-26T10:12:52.233Z,6.70
2018-03-26T10:15:55.581Z,6.90
2018-03-26T10:18:58.981Z,6.60
2018-03-26T10:22:02.448Z,6.30
2018-03-26T10:25:05.843Z,6.20
2018-03-26T10:28:09.196Z,6.30
2018-03-26T10:31:12.647Z,6.30
2018-03-26T10:34:16.034Z,6.30
2018-03-26T10:37:19.489Z,6.30
2018-03-26T10:40:22.823Z,6.20
2018-03-26T10:43:26.951Z,6.50
2018-03-26T10:46:30.314Z,6.50
2018-03-26T10:49:33.684Z,6.70
2018-03-26T10:52:37.039Z,6.50
2018-03-26T10:55:41.263Z,6.30
2018-03-26T10:58:44.620Z,6.20
2018-03-26T11:01:49.507Z,6.60
2018-03-26T11:04:52.866Z,6.60
2018-03-26T11:07:56.205Z,6.90
2018-03-26T11:10:59.647Z,7.20
2018-03-26T11:14:03.021Z,7.30
2018-03-26T11:17:06.428Z,7.30
2018-03-26T11:20:09.793Z,7.30
2018-03-26T11:23:13.162Z,7.50
2018-03-26T11:26:16.502Z,7.50
2018-03-26T11:29:19.947Z,7.40
2018-03-26T11:32:23.290Z,7.40
2018-03-26T11:35:26.656Z,7.40
2018-03-26T11:38:30.010Z,7.30
2018-03-26T11:41:33.368Z,7.30
2018-03-26T11:44:37.503Z,7.00
2018-03-26T11:47:40.860Z,6.90
2018-03-26T11:50:44.219Z,7.00
2018-03-26T11:53:47.580Z,7.10
2018-03-26T11:56:51.828Z,7.30
2018-03-26T11:59:55.197Z,7.30
2018-03-26T12:02:58.577Z,7.20
2018-03-26T12:06:02.717Z,7.30
2018-03-26T12:09:06.850Z,7.30
2018-03-26T12:12:10.257Z,7.30
2018-03-26T12:15:13.625Z,7.30
2018-03-26T12:18:17.077Z,7.30
2018-03-26T12:21:20.447Z,7.30
2018-03-26T12:24:41.606Z,7.30
2018-03-26T12:28:02.773Z,7.40
2018-03-26T12:31:06.907Z,7.30
2018-03-26T12:34:28.298Z,7.30
2018-03-26T12:37:31.719Z,7.40
2018-03-26T12:40:53.894Z,7.40
2018-03-26T12:43:57.367Z,7.40
2018-03-26T12:47:00.720Z,7.00
2018-03-26T12:50:05.595Z,7.10
2018-03-26T12:53:08.940Z,7.10
2018-03-26T12:56:12.348Z,7.20
2018-03-26T12:59:15.709Z,7.40
2018-03-26T13:02:27.544Z,7.40
2018-03-26T13:05:30.899Z,7.70
2018-03-26T13:08:34.271Z,7.60
2018-03-26T13:11:38.493Z,7.70
2018-03-26T13:14:42.639Z,7.90
2018-03-26T13:17:46.031Z,7.90
2018-03-26T13:20:49.385Z,8.00
2018-03-26T13:23:52.788Z,7.90
2018-03-26T13:26:56.169Z,7.90
2018-03-26T13:29:59.605Z,8.00
2018-03-26T13:33:02.914Z,7.90
2018-03-26T13:36:07.045Z,7.80
2018-03-26T13:39:10.413Z,7.80
2018-03-26T13:42:13.768Z,7.80
2018-03-26T13:45:17.121Z,7.70
2018-03-26T13:48:21.268Z,7.80
2018-03-26T13:51:24.637Z,7.90
2018-03-26T13:54:28.759Z,8.10
2018-03-26T13:57:32.878Z,8.20
2018-03-26T14:00:37.009Z,8.50
2018-03-26T14:03:40.362Z,8.50
2018-03-26T14:06:43.709Z,8.70
2018-03-26T14:10:04.922Z,8.70
2018-03-26T14:13:26.181Z,8.70
2018-03-26T14:16:47.602Z,8.70
2018-03-26T14:19:50.961Z,8.20
2018-03-26T14:22:54.470Z,7.90
2018-03-26T14:25:57.869Z,7.80
2018-03-26T14:29:01.291Z,7.70
2018-03-26T14:32:04.674Z,7.60
2018-03-26T14:39:02.237Z,7.60
2018-03-26T14:42:06.367Z,7.40
2018-03-26T14:45:09.771Z,7.40
2018-03-26T14:48:13.143Z,7.40
2018-03-26T14:51:17.275Z,7.50
2018-03-26T14:54:21.410Z,7.80
2018-03-26T14:57:24.894Z,7.80
2018-03-26T15:00:29.091Z,8.20
2018-03-26T15:03:32.626Z,8.20
2018-03-26T15:06:36.086Z,8.00
2018-03-26T15:09:39.443Z,8.10
2018-03-26T15:12:42.847Z,8.30
2018-03-26T15:15:46.243Z,8.50
2018-03-26T15:18:49.645Z,8.70
2018-03-26T15:21:53.021Z,8.90
2018-03-26T15:24:56.373Z,9.00
2018-03-26T15:27:59.726Z,9.00
2018-03-26T15:31:03.129Z,8.80
2018-03-26T15:34:06.508Z,8.50
2018-03-26T15:37:10.674Z,8.50
2018-03-26T15:40:14.053Z,8.50
2018-03-26T15:43:17.407Z,8.30
2018-03-26T15:46:21.563Z,8.20
2018-03-26T15:49:24.938Z,8.20
2018-03-26T15:52:28.345Z,8.40
2018-03-26T15:55:31.759Z,8.40
2018-03-26T15:58:35.157Z,8.00
2018-03-26T16:01:38.523Z,7.80
2018-03-26T16:04:42.684Z,7.90
2018-03-26T16:07:46.151Z,7.90
2018-03-26T16:10:50.366Z,7.60
2018-03-26T16:13:54.498Z,7.30
2018-03-26T16:16:58.101Z,7.30
2018-03-26T16:20:01.581Z,7.30
2018-03-26T16:23:05.071Z,7.40
2018-03-26T16:26:08.432Z,7.70
2018-03-26T16:29:11.790Z,8.00
2018-03-26T16:32:15.904Z,8.50
2018-03-26T16:35:20.058Z,8.40
2018-03-26T16:38:23.424Z,8.40
2018-03-26T16:41:48.508Z,8.40
2018-03-26T16:44:51.898Z,8.30
2018-03-26T16:47:55.310Z,8.20
2018-03-26T16:50:58.682Z,8.40
2018-03-26T16:54:02.099Z,8.50
2018-03-26T16:57:06.994Z,7.60
2018-03-26T17:00:10.528Z,7.60
2018-03-26T17:03:13.889Z,7.70
2018-03-26T17:06:17.298Z,7.90
2018-03-26T17:09:20.705Z,7.90
2018-03-26T17:12:24.073Z,8.10
2018-03-26T17:15:28.196Z,7.80
2018-03-26T17:18:31.808Z,7.80
2018-03-26T17:21:35.189Z,7.30
2018-03-26T17:24:39.417Z,6.50
2018-03-26T17:27:43.547Z,6.20
2018-03-26T17:30:46.919Z,6.20
2018-03-26T17:33:51.291Z,5.80
2018-03-26T17:36:54.677Z,5.80
2018-03-26T17:39:58.052Z,5.60
2018-03-26T17:43:02.475Z,5.30
2018-03-26T17:46:06.716Z,5.30
2018-03-26T17:49:10.118Z,5.30
2018-03-26T17:52:13.482Z,5.20
2018-03-26T17:55:17.629Z,5.00
2018-03-26T17:58:20.995Z,5.00
2018-03-26T18:01:25.160Z,5.10
2018-03-26T18:04:28.818Z,5.00
2018-03-26T18:07:33.116Z,4.90
2018-03-26T18:10:37.261Z,4.80
2018-03-26T18:13:41.497Z,4.80
2018-03-26T18:16:45.084Z,4.70
2018-03-26T18:19:49.278Z,4.60
2018-03-26T18:22:52.708Z,4.60
2018-03-26T18:25:57.075Z,4.50
2018-03-26T18:29:00.646Z,4.50
2018-03-26T18:32:04.038Z,4.40
2018-03-26T18:35:08.217Z,4.30
2018-03-26T18:38:11.568Z,4.20
2018-03-26T18:41:14.983Z,4.20
2018-03-26T18:44:18.391Z,4.10
2018-03-26T18:47:21.775Z,4.10
2018-03-26T18:50:25.195Z,4.00
2018-03-26T18:53:28.570Z,4.00
2018-03-26T18:56:31.987Z,4.00
2018-03-26T18:59:35.395Z,4.00
2018-03-26T19:02:38.788Z,4.00
2018-03-26T19:05:42.298Z,4.00
2018-03-26T19:08:45.727Z,4.00
2018-03-26T19:11:49.865Z,4.00
2018-03-26T19:14:54.020Z,4.00
2018-03-26T19:17:57.384Z,4.00
2018-03-26T19:21:01.581Z,4.10
2018-03-26T19:24:04.965Z,4.10
2018-03-26T19:27:08.357Z,4.10
2018-03-26T19:30:11.843Z,4.10
2018-03-26T19:33:15.271Z,4.10
2018-03-26T19:36:18.684Z,4.20
2018-03-26T19:39:22.183Z,4.10
2018-03-26T19:42:26.454Z,4.00
2018-03-26T19:45:29.861Z,4.00
2018-03-26T19:48:33.355Z,3.90
2018-03-26T19:51:36.786Z,3.80
2018-03-26T19:54:40.174Z,3.70
2018-03-26T19:57:43.644Z,3.70
2018-03-26T20:00:47.077Z,3.50
2018-03-26T20:03:51.647Z,3.50
2018-03-26T20:06:55.076Z,3.50
2018-03-26T20:09:58.469Z,3.50
2018-03-26T20:13:02.002Z,3.60
2018-03-26T20:16:05.478Z,3.70
2018-03-26T20:19:08.939Z,3.90
2018-03-26T20:22:13.852Z,4.00
2018-03-26T20:25:17.222Z,3.90
2018-03-26T20:28:20.605Z,4.10
2018-03-26T20:31:24.775Z,4.20
2018-03-26T20:34:28.345Z,4.10
2018-03-26T20:37:31.737Z,4.10
2018-03-26T20:40:35.116Z,4.10
2018-03-26T20:43:39.252Z,4.20
2018-03-26T20:46:42.639Z,4.10
2018-03-26T20:49:46.763Z,4.10
2018-03-26T20:52:50.128Z,4.10
2018-03-26T20:55:53.505Z,4.10
2018-03-26T20:58:56.875Z,4.10
2018-03-26T21:02:00.242Z,4.10
2018-03-26T21:05:04.379Z,4.10
2018-03-26T21:08:07.738Z,4.10
2018-03-26T21:11:11.862Z,4.20
2018-03-26T21:14:15.220Z,4.10
2018-03-26T21:17:18.622Z,4.20
2018-03-26T21:20:22.112Z,4.20
2018-03-26T21:23:25.471Z,4.20
2018-03-26T21:26:29.619Z,4.20
2018-03-26T21:29:33.015Z,4.10
2018-03-26T21:32:36.375Z,4.10
2018-03-26T21:35:39.738Z,4.10
2018-03-26T21:38:43.118Z,4.10
2018-03-26T21:41:46.603Z,4.00
2018-03-26T21:44:50.848Z,4.10
2018-03-26T21:47:54.222Z,4.00
2018-03-26T21:50:58.354Z,4.00
2018-03-26T21:54:01.724Z,4.00
2018-03-26T21:57:05.856Z,4.10
2018-03-26T22:00:24.849Z,4.10
2018-03-26T22:03:28.194Z,4.00
2018-03-26T22:06:31.537Z,4.00
2018-03-26T22:09:35.181Z,3.90
2018-03-26T22:12:39.306Z,3.90
2018-03-26T22:15:42.888Z,4.00
2018-03-26T22:18:46.245Z,3.90
2018-03-26T22:21:49.645Z,4.00
2018-03-26T22:24:53.009Z,4.00
2018-03-26T22:27:57.896Z,3.90
2018-03-26T22:31:01.273Z,3.90
2018-03-26T22:34:05.395Z,3.90
2018-03-26T22:37:08.906Z,3.90
2018-03-26T22:40:12.264Z,3.90
2018-03-26T22:43:15.623Z,3.90
2018-03-26T22:46:18.974Z,3.90
2018-03-26T22:49:23.088Z,3.80
2018-03-26T22:52:27.194Z,3.80
2018-03-26T22:55:30.537Z,3.80
2018-03-26T22:58:33.952Z,3.70
2018-03-26T23:01:37.302Z,3.70
2018-03-26T23:04:41.542Z,3.60
2018-03-26T23:07:44.902Z,3.60
2018-03-26T23:10:49.069Z,3.70
2018-03-26T23:13:52.449Z,3.60
2018-03-26T23:16:56.570Z,3.70
2018-03-26T23:19:59.990Z,3.70
2018-03-26T23:23:03.371Z,3.60
2018-03-26T23:26:06.822Z,3.50
2018-03-26T23:29:10.179Z,3.40
2018-03-26T23:32:13.630Z,3.30
2018-03-26T23:35:17.742Z,3.20
2018-03-26T23:38:21.130Z,3.20
2018-03-26T23:41:24.509Z,3.20
2018-03-26T23:44:27.844Z,3.20
2018-03-26T23:47:31.203Z,3.10
2018-03-26T23:50:34.576Z,3.10
2018-03-26T23:53:38.696Z,3.10
2018-03-26T23:56:42.811Z,3.10
2018-03-26T23:59:46.938Z,3.10
